• Join FlightAware (Why Join?)
  • Login
  • US Flag 
04:09AM EDT


 

Airport Tracker/Info


-or-


 

Live Flight TrackerFlight Track Log ✈ N488VC ✈ 12-Apr-2013 ✈ KCAK - KMQI

Flight Track Log - Related Links

Times and Time Zones

All times are in EDT time to prevent confusion due to time zone crossing. See the N488VC flight status page for this flight to view local times or setup timezone preferences in your user account.

Time Position Orientation Groundspeed Altitude Reporting Facility
EDT Latitude Longitude Course Direction KTS MPH feet Rate Location/Type
06:53AM 40.7836 -81.3619 132° Southeast 235 270 8,800  Level Cleveland Center
06:54AM 40.7383 -81.2956 132° Southeast 230 265 11,700 2,640 Climbing Cleveland Center
06:55AM 40.6908 -81.2156 128° Southeast 261 300 14,100 2,160 Climbing Cleveland Center
06:56AM 40.6369 -81.1331 131° Southeast 288 331 16,100 1,260 Climbing Cleveland Center
06:57AM 40.5833 -81.0425 128° Southeast 319 367 16,700 1,440 Climbing Cleveland Center
06:58AM 40.5189 -80.9436 131° Southeast 340 391 19,000 2,100 Climbing Cleveland Center
06:59AM 40.4525 -80.8394 130° Southeast 359 413 21,000 1,920 Climbing Cleveland Center
07:00AM 40.3903 -80.7411 130° Southeast 364 419 22,900 1,860 Climbing Cleveland Center
07:01AM 40.3361 -80.6567 130° Southeast 333 383 24,800 1,980 Climbing Cleveland Center
07:02AM 40.2756 -80.5642 131° Southeast 307 353 27,000 1,860 Climbing Cleveland Center
07:03AM 40.2067 -80.5042 146° Southeast 302 348 28,600 1,440 Climbing Cleveland Center
07:04AM 40.1233 -80.4717 163° South 302 348 29,900 660 Climbing Cleveland Center
07:05AM 40.0317 -80.4339 162° South 325 374 30,000 60 Climbing Cleveland Center
07:06AM 39.9314 -80.3936 163° South 354 407 30,100 540 Climbing Cleveland Center
07:07AM 39.8314 -80.3478 161° South 370 426 31,100 1,080 Climbing Cleveland Center
07:08AM 39.7375 -80.2889 154° Southeast 375 432 32,300 1,260 Climbing Cleveland Center
07:09AM 39.6703 -80.1758 128° Southeast 380 437 33,700 1,320 Climbing Cleveland Center
07:10AM 39.6219 -80.0442 115° Southeast 388 447 35,000 600 Climbing Cleveland Center
07:11AM 39.5711 -79.9072 116° Southeast 393 452 35,000  Level Cleveland Center
07:12AM 39.5203 -79.7678 115° Southeast 410 472 35,000  Level Cleveland Center
07:13AM 39.4708 -79.6322 115° Southeast 418 481 35,000  Level Washington Center
07:14AM 39.4172 -79.4897 116° Southeast 418 481 35,000  Level Washington Center
07:15AM 39.3633 -79.3497 116° Southeast 423 487 35,000  Level Washington Center
07:16AM 39.2994 -79.1936 118° Southeast 440 506 35,000  Level Washington Center
07:17AM 39.2450 -79.0569 117° Southeast 440 506 35,000 300 Level Washington Center
07:18AM 39.1625 -78.9539 136° Southeast 416 479 35,700 840 Climbing Washington Center
07:19AM 39.0686 -78.8800 149° Southeast 402 463 36,700 600 Climbing Washington Center
07:20AM 38.9744 -78.8144 152° Southeast 396 456 37,000 120 Climbing Washington Center
07:21AM 38.8761 -78.7461 152° Southeast 396 456 37,000  Level Washington Center
07:22AM 38.7781 -78.6781 152° Southeast 401 461 37,000  Level Washington Center
07:23AM 38.6817 -78.6128 152° Southeast 401 461 37,000  Level Washington Center
07:24AM 38.5831 -78.5450 152° Southeast 401 461 37,000  Level Washington Center
07:25AM 38.4847 -78.4775 152° Southeast 401 461 37,000  Level Washington Center
07:26AM 38.3861 -78.4100 152° Southeast 401 461 37,000  Level Washington Center
07:27AM 38.2897 -78.3431 151° Southeast 407 468 37,000  Level Washington Center
07:28AM 38.1994 -78.2814 152° Southeast 407 468 37,000  Level Washington Center
07:29AM 38.1008 -78.2147 152° Southeast 407 468 37,000  Level Washington Center
07:30AM 38.0086 -78.1375 147° Southeast 407 468 37,000  Level Washington Center
07:31AM 37.9194 -78.0083 131° Southeast 423 487 37,000  Level Washington Center
07:32AM 37.8425 -77.8928 130° Southeast 428 493 37,000 -60 Level Washington Center
07:33AM 37.7569 -77.7878 136° Southeast 429 494 36,900 -900 Descending Washington Center
07:34AM 37.6711 -77.6933 139° Southeast 429 494 35,300 -1,740 Descending Washington Center
07:35AM 37.5850 -77.5967 138° Southeast 417 480 33,500 -1,800 Descending Washington Center
07:36AM 37.4947 -77.5000 140° Southeast 417 480 31,700 -1,800 Descending Washington Center
07:37AM 37.4086 -77.4064 139° Southeast 417 480 29,900 -1,860 Descending Washington Center
07:38AM 37.3225 -77.3128 139° Southeast 422 486 28,000 -1,980 Descending Washington Center
07:39AM 37.2342 -77.2144 138° Southeast 422 486 26,000 -2,280 Descending Washington Center
07:40AM 37.1539 -77.1319 141° Southeast 422 486 23,500 -2,520 Descending Washington Center
07:41AM 37.0714 -77.0444 140° Southeast 399 459 21,300 -2,220 Descending Washington Center
07:42AM 36.9850 -76.9517 139° Southeast 382 440 19,100 -1,080 Descending Washington Center
07:43AM 36.9025 -76.8619 139° Southeast 369 425 19,000 -60 Descending Washington Center
07:44AM 36.8242 -76.7803 140° Southeast 379 436 19,000  Level Washington Center
07:45AM 36.7436 -76.6908 138° Southeast 398 458 19,000 -300 Level Washington Center
07:46AM 36.6692 -76.6097 139° Southeast 393 452 18,500 -1,320 Descending Washington Center
07:47AM 36.5906 -76.5283 140° Southeast 380 437 16,400 -2,040 Descending Washington Center
07:48AM 36.5139 -76.4472 140° Southeast 375 432 14,500 -1,920 Descending Washington Center
07:49AM 36.4456 -76.3717 138° Southeast 356 410 12,600 -1,800 Descending Washington Center
07:50AM 36.3792 -76.3042 141° Southeast 328 377 10,900 -1,800 Descending Washington Center
07:51AM 36.3169 -76.2417 141° Southeast 305 351 9,100 -1,740 Descending Washington Center
07:52AM 36.2631 -76.1794 137° Southeast 287 330 7,500 -1,560 Descending Washington Center
07:53AM 36.2197 -76.0992 124° Southeast 268 308 6,000 -1,320 Descending Washington Center
07:54AM 36.1803 -76.0192 121° Southeast 268 308 4,900 -600 Descending Washington Center
07:55AM 36.1408 -75.9367 121° Southeast 273 314 4,900 -300 Level Washington Center
07:56AM 36.1014 -75.8567 121° Southeast 273 314 4,400 -1,020 Descending Washington Center
07:57AM 36.0661 -75.7847 121° Southeast 268 308 2,900 -960 Descending Washington Center
07:58AM 36.0267 -75.7281 131° Southeast 246 283 2,500 -540 Descending Washington Center
07:59AM 35.9869 -75.6897 142° Southeast 208 239 1,900 -600 Descending Washington Center
08:00AM 35.9472 -75.6253 127° Southeast 196 226 1,400 300 Descending Washington Center
08:01AM 35.9119 -75.5742 130° Southeast 196 226 2,500 540 Climbing Washington Center
08:02AM 35.8742 -75.5228 132° Southeast 196 226 2,500  Level Washington Center
08:03AM 35.8597 -75.5022 131° Southeast 196 226 2,500  Level Washington Center